createdAt,value
2018-12-12T00:01:19.862Z,33.63
2018-12-12T00:03:22.987Z,48.60
2018-12-12T00:05:26.127Z,35.37
2018-12-12T00:07:29.309Z,35.40
2018-12-12T00:09:32.434Z,33.47
2018-12-12T00:11:35.797Z,24.93
2018-12-12T00:13:38.934Z,32.47
2018-12-12T00:15:42.209Z,29.73
2018-12-12T00:17:45.721Z,26.60
2018-12-12T00:19:48.842Z,28.50
2018-12-12T00:21:51.977Z,33.87
2018-12-12T00:23:55.173Z,21.30
2018-12-12T00:25:58.422Z,23.10
2018-12-12T00:28:01.714Z,25.37
2018-12-12T00:30:05.084Z,11.27
2018-12-12T00:32:08.221Z,45.87
2018-12-12T00:34:11.410Z,29.90
2018-12-12T00:36:14.675Z,31.13
2018-12-12T00:38:17.822Z,21.37
2018-12-12T00:40:20.953Z,25.57
2018-12-12T00:42:24.074Z,36.10
2018-12-12T00:44:27.265Z,16.77
2018-12-12T00:46:30.566Z,29.60
2018-12-12T00:48:33.761Z,41.47
2018-12-12T00:50:36.902Z,16.73
2018-12-12T00:52:40.030Z,29.57
2018-12-12T00:54:43.326Z,21.83
2018-12-12T00:56:46.526Z,24.27
2018-12-12T00:58:49.722Z,26.33
2018-12-12T01:00:52.965Z,32.67
2018-12-12T01:02:56.093Z,18.13
2018-12-12T01:04:59.298Z,36.50
2018-12-12T01:07:02.431Z,18.27
2018-12-12T01:09:07.117Z,25.77
2018-12-12T01:11:15.800Z,22.77
2018-12-12T01:13:18.898Z,14.87
2018-12-12T01:15:22.039Z,29.80
2018-12-12T01:17:25.205Z,34.97
2018-12-12T01:19:28.350Z,32.80
2018-12-12T01:21:31.530Z,22.17
2018-12-12T01:23:34.710Z,27.80
2018-12-12T01:25:37.794Z,21.77
2018-12-12T01:27:40.883Z,29.53
2018-12-12T01:29:44.193Z,30.87
2018-12-12T01:31:47.494Z,28.03
2018-12-12T01:33:50.574Z,17.87
2018-12-12T01:35:53.754Z,17.93
2018-12-12T01:37:56.911Z,17.40
2018-12-12T01:39:59.981Z,30.63
2018-12-12T01:42:03.205Z,23.30
2018-12-12T01:44:06.422Z,22.23
2018-12-12T01:46:09.573Z,30.43
2018-12-12T01:48:12.687Z,26.13
2018-12-12T01:50:15.775Z,24.27
2018-12-12T01:52:19.022Z,40.13
2018-12-12T01:54:22.178Z,25.77
2018-12-12T01:56:25.401Z,18.63
2018-12-12T01:58:28.542Z,34.27
2018-12-12T02:00:31.642Z,27.27
2018-12-12T02:02:34.694Z,28.53
2018-12-12T02:04:37.746Z,34.93
2018-12-12T02:06:40.889Z,21.20
2018-12-12T02:08:43.950Z,46.50
2018-12-12T02:10:47.138Z,37.73
2018-12-12T02:13:01.667Z,21.90
2018-12-12T02:15:05.008Z,27.67
2018-12-12T02:17:08.171Z,26.40
2018-12-12T02:19:11.448Z,35.23
2018-12-12T02:21:15.554Z,39.00
2018-12-12T02:23:18.714Z,34.40
2018-12-12T02:25:21.833Z,31.83
2018-12-12T02:27:24.938Z,23.93
2018-12-12T02:29:28.029Z,25.63
2018-12-12T02:31:31.138Z,31.40
2018-12-12T02:33:34.315Z,30.83
2018-12-12T02:35:37.403Z,35.90
2018-12-12T02:37:41.666Z,31.87
2018-12-12T02:39:44.839Z,36.80
2018-12-12T02:41:47.947Z,35.13
2018-12-12T02:43:51.822Z,37.10
2018-12-12T02:45:55.319Z,26.77
2018-12-12T02:47:58.477Z,35.83
2018-12-12T02:50:01.632Z,26.70
2018-12-12T02:52:04.719Z,35.17
2018-12-12T02:54:07.817Z,40.80
2018-12-12T02:56:10.998Z,30.43
2018-12-12T02:58:14.115Z,21.30
2018-12-12T03:00:17.363Z,39.90
2018-12-12T03:02:21.140Z,48.53
2018-12-12T03:04:24.224Z,21.70
2018-12-12T03:06:27.478Z,39.40
2018-12-12T03:08:30.622Z,24.40
2018-12-12T03:10:33.733Z,28.10
2018-12-12T03:12:37.005Z,26.93
2018-12-12T03:14:40.110Z,25.97
2018-12-12T03:16:43.346Z,31.77
2018-12-12T03:18:46.454Z,34.23
2018-12-12T03:20:49.565Z,39.70
2018-12-12T03:22:52.654Z,26.77
2018-12-12T03:24:55.778Z,35.50
2018-12-12T03:26:58.935Z,38.17
2018-12-12T03:29:02.140Z,18.53
2018-12-12T03:31:05.266Z,31.30
2018-12-12T03:33:08.472Z,30.40
2018-12-12T03:35:11.585Z,31.70
2018-12-12T03:37:14.722Z,31.53
2018-12-12T03:39:17.907Z,28.23
2018-12-12T03:41:21.023Z,32.23
2018-12-12T03:43:24.156Z,32.13
2018-12-12T03:45:27.279Z,34.80
2018-12-12T03:47:30.406Z,28.63
2018-12-12T03:49:33.567Z,22.60
2018-12-12T03:51:36.871Z,25.50
2018-12-12T03:53:40.080Z,18.93
2018-12-12T03:55:43.288Z,26.97
2018-12-12T03:57:46.598Z,33.23
2018-12-12T03:59:49.799Z,38.87
2018-12-12T04:01:52.988Z,22.33
2018-12-12T04:03:56.243Z,25.47
2018-12-12T04:05:59.554Z,26.43
2018-12-12T04:08:02.786Z,36.40
2018-12-12T04:10:06.285Z,34.23
2018-12-12T04:12:09.816Z,34.03
2018-12-12T04:14:12.931Z,44.47
2018-12-12T04:16:16.325Z,27.27
2018-12-12T04:18:19.574Z,30.37
2018-12-12T04:20:22.907Z,34.50
2018-12-12T04:22:26.556Z,27.80
2018-12-12T04:24:29.826Z,44.63
2018-12-12T04:26:33.184Z,38.00
2018-12-12T04:28:36.577Z,35.43
2018-12-12T04:30:39.987Z,28.00
2018-12-12T04:32:48.069Z,47.50
2018-12-12T04:34:51.344Z,33.80
2018-12-12T04:36:54.961Z,36.67
2018-12-12T04:38:58.378Z,33.73
2018-12-12T04:41:01.636Z,34.20
2018-12-12T04:43:05.073Z,31.13
2018-12-12T04:45:08.496Z,35.03
2018-12-12T04:47:11.795Z,43.43
2018-12-12T04:49:15.069Z,28.63
2018-12-12T04:51:18.309Z,35.97
2018-12-12T04:53:21.672Z,38.53
2018-12-12T04:55:25.006Z,36.70
2018-12-12T04:57:28.339Z,28.17
2018-12-12T04:59:31.651Z,27.33
2018-12-12T05:01:35.047Z,34.17
2018-12-12T05:03:38.538Z,30.50
2018-12-12T05:05:41.879Z,29.30
2018-12-12T05:07:49.553Z,36.50
2018-12-12T05:09:53.077Z,31.87
2018-12-12T05:11:56.266Z,34.07
2018-12-12T05:13:59.503Z,40.03
2018-12-12T05:16:02.972Z,28.67
2018-12-12T05:18:06.287Z,52.67
2018-12-12T05:20:09.698Z,31.97
2018-12-12T05:22:13.054Z,35.33
2018-12-12T05:24:16.377Z,29.23
2018-12-12T05:26:19.666Z,40.47
2018-12-12T05:28:23.106Z,33.33
2018-12-12T05:30:26.443Z,26.40
2018-12-12T05:32:29.663Z,24.97
2018-12-12T05:34:32.992Z,27.87
2018-12-12T05:36:36.474Z,32.70
2018-12-12T05:38:39.743Z,24.10
2018-12-12T05:40:43.099Z,30.43
2018-12-12T05:42:46.639Z,35.87
2018-12-12T05:44:50.109Z,23.13
2018-12-12T05:46:53.318Z,21.60
2018-12-12T05:48:57.325Z,28.97
2018-12-12T05:51:00.680Z,26.07
2018-12-12T05:53:04.843Z,27.60
2018-12-12T05:55:08.059Z,23.80
2018-12-12T05:57:11.194Z,29.83
2018-12-12T05:59:14.374Z,18.87
2018-12-12T06:01:18.486Z,34.83
2018-12-12T06:07:46.797Z,19.50
2018-12-12T06:12:17.637Z,26.97
2018-12-12T06:14:20.862Z,23.33
2018-12-12T06:16:24.272Z,43.50
2018-12-12T06:18:28.360Z,24.53
2018-12-12T06:20:31.773Z,20.30
2018-12-12T06:22:37.769Z,34.37
2018-12-12T06:24:43.218Z,26.47
2018-12-12T06:26:46.486Z,24.20
2018-12-12T06:28:49.795Z,23.20
2018-12-12T06:30:53.112Z,31.00
2018-12-12T06:33:06.293Z,22.67
2018-12-12T06:35:18.679Z,30.47
2018-12-12T07:14:44.145Z,22.93
2018-12-12T07:35:59.662Z,27.43
2018-12-12T07:38:02.986Z,26.10
2018-12-12T07:40:06.459Z,27.77
2018-12-12T07:42:09.837Z,18.57
2018-12-12T07:52:38.463Z,17.87
2018-12-12T07:54:47.596Z,19.63
2018-12-12T07:57:02.360Z,26.23
2018-12-12T08:01:35.071Z,17.73
2018-12-12T08:27:17.406Z,13.03
2018-12-12T08:58:52.533Z,22.83
2018-12-12T09:00:57.608Z,17.03
2018-12-12T09:03:04.155Z,20.13
2018-12-12T09:05:08.930Z,18.73
2018-12-12T09:07:13.805Z,19.30
2018-12-12T09:09:17.640Z,18.57
2018-12-12T09:11:21.021Z,17.00
2018-12-12T09:13:26.858Z,17.70
2018-12-12T09:15:37.458Z,17.20
2018-12-12T09:17:43.814Z,18.70
2018-12-12T09:19:49.785Z,27.77
2018-12-12T09:21:56.377Z,27.13
2018-12-12T09:24:03.838Z,19.43
2018-12-12T09:26:13.216Z,20.80
2018-12-12T09:28:19.275Z,20.80
2018-12-12T09:30:24.719Z,16.63
2018-12-12T09:32:29.331Z,21.63
2018-12-12T09:34:33.200Z,31.13
2018-12-12T09:36:36.519Z,22.87
2018-12-12T09:38:39.866Z,20.90
2018-12-12T09:40:43.489Z,21.07
2018-12-12T09:42:50.584Z,20.40
2018-12-12T09:44:56.487Z,26.90
2018-12-12T09:47:07.756Z,20.03
2018-12-12T09:49:19.427Z,23.07
2018-12-12T09:51:36.908Z,30.03
2018-12-12T09:56:15.007Z,19.17
2018-12-12T09:58:25.837Z,15.37
2018-12-12T10:02:59.040Z,17.47
2018-12-12T10:07:17.299Z,24.90
2018-12-12T10:09:25.495Z,16.10
2018-12-12T10:11:29.919Z,17.47
2018-12-12T10:13:35.699Z,11.47
2018-12-12T10:15:38.810Z,19.70
2018-12-12T10:17:41.929Z,23.20
2018-12-12T10:19:45.068Z,15.33
2018-12-12T10:21:48.356Z,24.13
2018-12-12T10:23:51.516Z,12.50
2018-12-12T10:25:56.455Z,25.73
2018-12-12T10:28:17.045Z,14.40
2018-12-12T10:30:30.067Z,22.90
2018-12-12T10:35:09.117Z,15.03
2018-12-12T10:37:20.687Z,15.30
2018-12-12T10:39:23.828Z,18.30
2018-12-12T10:41:26.975Z,24.23
2018-12-12T10:43:30.208Z,13.30
2018-12-12T10:45:39.090Z,12.97
2018-12-12T10:47:48.433Z,25.40
2018-12-12T10:50:06.002Z,17.33
2018-12-12T10:54:38.535Z,24.90
2018-12-12T10:56:48.217Z,13.57
2018-12-12T10:59:01.643Z,19.10
2018-12-12T11:01:10.707Z,15.57
2018-12-12T11:03:22.748Z,18.90
2018-12-12T11:05:35.394Z,13.07
2018-12-12T11:07:38.585Z,14.77
2018-12-12T11:09:41.946Z,19.87
2018-12-12T11:11:45.061Z,13.00
2018-12-12T11:13:48.234Z,20.77
2018-12-12T11:15:51.369Z,16.23
2018-12-12T11:17:54.503Z,20.23
2018-12-12T11:19:57.638Z,17.97
2018-12-12T11:22:00.866Z,17.93
2018-12-12T11:24:04.095Z,13.63
2018-12-12T11:26:07.233Z,21.73
2018-12-12T11:28:10.476Z,16.87
2018-12-12T11:30:13.623Z,20.87
2018-12-12T11:32:25.938Z,21.43
2018-12-12T11:34:30.251Z,16.80
2018-12-12T11:36:33.470Z,19.80
2018-12-12T11:38:36.675Z,24.20
2018-12-12T11:40:48.980Z,20.80
2018-12-12T11:43:01.324Z,18.50
2018-12-12T11:45:11.409Z,17.60
2018-12-12T11:47:14.582Z,19.13
2018-12-12T11:49:17.718Z,17.40
2018-12-12T11:51:20.932Z,25.63
2018-12-12T11:53:24.083Z,32.97
2018-12-12T11:55:27.215Z,16.70
2018-12-12T11:57:31.500Z,18.80
2018-12-12T11:59:34.776Z,16.37
2018-12-12T12:01:37.911Z,19.70
2018-12-12T12:03:41.039Z,12.97
2018-12-12T12:05:44.169Z,13.23
2018-12-12T12:07:47.291Z,14.37
2018-12-12T12:09:50.543Z,8.10
2018-12-12T12:11:53.871Z,10.60
2018-12-12T12:13:56.960Z,8.87
2018-12-12T12:16:00.126Z,8.60
2018-12-12T12:18:03.445Z,12.13
2018-12-12T12:20:06.687Z,8.67
2018-12-12T12:22:16.508Z,9.83
2018-12-12T12:24:21.054Z,12.37
2018-12-12T12:26:31.147Z,15.40
2018-12-12T12:28:38.604Z,9.60
2018-12-12T12:30:45.512Z,12.30
2018-12-12T12:35:13.359Z,9.50
2018-12-12T12:37:20.076Z,15.20
2018-12-12T12:39:23.383Z,10.60
2018-12-12T12:41:26.711Z,13.03
2018-12-12T12:43:29.778Z,8.13
2018-12-12T12:45:32.891Z,10.73
2018-12-12T12:47:35.966Z,12.80
2018-12-12T12:49:39.056Z,11.23
2018-12-12T12:51:42.146Z,9.10
2018-12-12T12:53:45.269Z,11.20
2018-12-12T12:55:48.400Z,10.77
2018-12-12T12:57:51.494Z,11.60
2018-12-12T12:59:54.593Z,10.47
2018-12-12T13:01:57.669Z,9.47
2018-12-12T13:04:00.745Z,11.43
2018-12-12T13:06:04.062Z,13.50
2018-12-12T13:08:07.182Z,9.80
2018-12-12T13:10:11.632Z,8.07
2018-12-12T13:12:15.179Z,16.60
2018-12-12T13:14:18.467Z,18.83
2018-12-12T13:16:21.590Z,10.10
2018-12-12T13:18:24.945Z,27.70
2018-12-12T13:20:28.102Z,11.07
2018-12-12T13:22:31.739Z,21.43
2018-12-12T13:24:37.949Z,15.83
2018-12-12T13:26:41.314Z,13.53
2018-12-12T13:28:44.497Z,15.53
2018-12-12T13:30:47.635Z,10.53
2018-12-12T13:32:50.843Z,11.93
2018-12-12T13:34:54.143Z,11.60
2018-12-12T13:36:57.434Z,11.03
2018-12-12T13:41:10.286Z,11.90
2018-12-12T13:43:13.410Z,17.07
2018-12-12T13:45:16.625Z,14.20
2018-12-12T13:47:19.786Z,11.70
2018-12-12T13:49:23.916Z,14.10
2018-12-12T13:51:27.058Z,16.20
2018-12-12T13:53:30.182Z,18.73
2018-12-12T13:55:33.329Z,16.10
2018-12-12T13:57:36.550Z,27.43
2018-12-12T13:59:39.694Z,15.07
2018-12-12T14:01:42.851Z,18.27
2018-12-12T14:03:46.143Z,20.90
2018-12-12T14:05:49.387Z,16.70
2018-12-12T14:07:52.673Z,17.30
2018-12-12T14:09:55.915Z,16.13
2018-12-12T14:11:59.095Z,12.33
2018-12-12T14:14:02.258Z,12.80
2018-12-12T14:16:05.425Z,10.63
2018-12-12T14:18:08.609Z,16.73
2018-12-12T14:20:11.779Z,16.13
2018-12-12T14:22:14.881Z,15.07
2018-12-12T14:24:17.975Z,12.67
2018-12-12T14:26:21.087Z,16.17
2018-12-12T14:28:24.349Z,11.00
2018-12-12T14:30:27.445Z,11.40
2018-12-12T14:32:30.526Z,13.60
2018-12-12T14:34:33.718Z,12.70
2018-12-12T14:36:36.838Z,19.63
2018-12-12T14:38:40.010Z,13.77
2018-12-12T14:40:43.109Z,12.80
2018-12-12T14:42:46.202Z,15.50
2018-12-12T14:44:49.512Z,13.60
2018-12-12T14:46:52.680Z,10.80
2018-12-12T14:48:55.874Z,10.60
2018-12-12T14:50:59.029Z,9.77
2018-12-12T14:53:02.119Z,8.70
2018-12-12T14:55:05.287Z,12.10
2018-12-12T14:57:08.477Z,15.00
2018-12-12T14:59:11.636Z,14.10
2018-12-12T15:01:14.818Z,11.07
2018-12-12T15:03:17.909Z,14.10
2018-12-12T15:05:21.080Z,9.90
2018-12-12T15:07:24.178Z,14.47
2018-12-12T15:09:27.292Z,11.93
2018-12-12T15:11:30.454Z,16.97
2018-12-12T15:13:33.592Z,18.00
2018-12-12T15:15:36.758Z,14.00
2018-12-12T15:17:39.895Z,12.67
2018-12-12T15:19:44.143Z,11.87
2018-12-12T15:21:47.289Z,10.03
2018-12-12T15:23:50.428Z,11.17
2018-12-12T15:25:53.581Z,13.13
2018-12-12T15:27:56.713Z,13.57
2018-12-12T15:29:59.829Z,15.63
2018-12-12T15:32:02.959Z,15.03
2018-12-12T15:34:06.086Z,17.20
2018-12-12T15:36:09.298Z,13.50
2018-12-12T15:38:12.417Z,13.77
2018-12-12T15:40:15.534Z,17.87
2018-12-12T15:42:18.659Z,21.00
2018-12-12T15:44:21.893Z,15.97
2018-12-12T15:46:25.186Z,17.70
2018-12-12T15:48:28.308Z,16.53
2018-12-12T15:50:31.939Z,14.87
2018-12-12T15:52:35.157Z,12.47
2018-12-12T15:54:38.297Z,12.10
2018-12-12T15:56:41.440Z,14.03
2018-12-12T15:58:44.577Z,15.33
2018-12-12T16:00:47.782Z,13.50
2018-12-12T16:02:50.957Z,15.70
2018-12-12T16:04:54.120Z,8.93
2018-12-12T16:06:57.243Z,14.70
2018-12-12T16:09:00.368Z,16.63
2018-12-12T16:11:08.183Z,10.80
2018-12-12T16:13:08.715Z,10.37
2018-12-12T16:15:12.006Z,17.60
2018-12-12T16:17:15.345Z,13.73
2018-12-12T16:19:18.467Z,16.60
2018-12-12T16:21:21.601Z,14.30
2018-12-12T16:23:24.834Z,12.97
2018-12-12T16:25:27.969Z,13.57
2018-12-12T16:27:31.147Z,15.57
2018-12-12T16:29:34.311Z,15.10
2018-12-12T16:31:37.492Z,12.47
2018-12-12T16:33:40.671Z,16.60
2018-12-12T16:35:43.918Z,17.93
2018-12-12T16:37:47.143Z,13.47
2018-12-12T16:39:50.359Z,16.67
2018-12-12T16:41:53.750Z,17.73
2018-12-12T16:43:57.035Z,15.40
2018-12-12T16:46:00.310Z,13.90
2018-12-12T16:48:03.486Z,14.13
2018-12-12T16:50:07.281Z,12.03
2018-12-12T16:52:10.489Z,12.70
2018-12-12T16:54:13.782Z,11.80
2018-12-12T16:56:16.962Z,13.30
2018-12-12T16:58:20.427Z,13.40
2018-12-12T17:00:23.631Z,14.13
2018-12-12T17:02:26.962Z,13.17
2018-12-12T17:04:30.316Z,14.57
2018-12-12T17:06:33.570Z,16.80
2018-12-12T17:08:37.173Z,15.13
2018-12-12T17:10:50.060Z,14.20
2018-12-12T17:13:01.914Z,15.80
2018-12-12T17:15:06.063Z,19.37
2018-12-12T17:17:10.276Z,18.93
2018-12-12T17:19:16.008Z,18.77
2018-12-12T17:21:19.234Z,23.90
2018-12-12T17:23:35.799Z,19.10
2018-12-12T17:25:39.764Z,18.40
2018-12-12T17:30:33.889Z,22.10
2018-12-12T17:32:37.417Z,25.77
2018-12-12T17:34:40.965Z,24.70
2018-12-12T17:36:44.319Z,34.43
2018-12-12T17:38:47.679Z,26.97
2018-12-12T17:40:50.965Z,30.13
2018-12-12T17:43:13.324Z,33.73
2018-12-12T17:45:30.283Z,33.30
2018-12-12T17:47:41.083Z,39.07
2018-12-12T17:49:44.676Z,39.87
2018-12-12T17:51:47.908Z,35.70
2018-12-12T17:54:14.702Z,41.47
2018-12-12T17:56:23.915Z,35.27
2018-12-12T17:58:27.354Z,36.10
2018-12-12T18:00:34.271Z,36.63
2018-12-12T18:02:37.503Z,53.03
2018-12-12T18:04:41.800Z,38.27
2018-12-12T18:06:45.031Z,47.60
2018-12-12T18:08:48.207Z,40.77
2018-12-12T18:10:51.429Z,46.20
2018-12-12T18:12:54.566Z,48.90
2018-12-12T18:14:57.822Z,75.77
2018-12-12T18:17:00.962Z,72.20
2018-12-12T18:19:06.256Z,65.33
2018-12-12T18:21:09.949Z,72.50
2018-12-12T18:23:13.106Z,78.43
2018-12-12T18:25:16.246Z,76.73
2018-12-12T18:27:19.391Z,62.97
2018-12-12T18:29:22.518Z,63.00
2018-12-12T18:31:25.671Z,84.97
2018-12-12T18:33:29.078Z,64.60
2018-12-12T18:35:33.782Z,63.73
2018-12-12T18:37:37.046Z,60.57
2018-12-12T18:39:40.208Z,55.50
2018-12-12T18:41:43.467Z,67.40
2018-12-12T18:43:46.793Z,62.00
2018-12-12T18:45:50.146Z,73.20
2018-12-12T18:48:17.435Z,70.67
2018-12-12T18:52:58.357Z,64.67
2018-12-12T18:55:14.835Z,85.30
2018-12-12T18:57:17.978Z,82.93
2018-12-12T18:59:21.114Z,71.00
2018-12-12T19:01:24.406Z,74.87
2018-12-12T19:03:27.636Z,70.47
2018-12-12T19:05:31.119Z,71.90
2018-12-12T19:07:34.410Z,80.93
2018-12-12T19:09:37.706Z,74.77
2018-12-12T19:11:44.507Z,79.93
2018-12-12T19:13:47.048Z,103.90
2018-12-12T19:15:51.002Z,92.40
2018-12-12T19:17:54.975Z,87.13
2018-12-12T19:19:58.194Z,89.27
2018-12-12T19:22:01.467Z,85.17
2018-12-12T19:24:04.754Z,85.03
2018-12-12T19:26:07.893Z,101.07
2018-12-12T19:28:11.268Z,113.40
2018-12-12T19:30:14.555Z,106.30
2018-12-12T19:32:29.502Z,107.10
2018-12-12T19:34:33.656Z,99.67
2018-12-12T19:36:36.995Z,109.20
2018-12-12T19:38:40.169Z,106.53
2018-12-12T19:40:43.480Z,116.33
2018-12-12T19:42:46.663Z,120.67
2018-12-12T19:44:49.786Z,111.70
2018-12-12T19:47:19.467Z,125.37
2018-12-12T19:49:31.722Z,114.43
2018-12-12T19:51:39.056Z,129.60
2018-12-12T19:53:59.383Z,121.30
2018-12-12T19:56:05.197Z,128.37
2018-12-12T19:58:20.264Z,123.57
2018-12-12T20:00:46.936Z,144.50
2018-12-12T20:02:50.127Z,130.43
2018-12-12T20:04:53.321Z,159.47
2018-12-12T20:06:56.854Z,136.60
2018-12-12T20:09:07.994Z,129.60
2018-12-12T20:11:37.529Z,131.73
2018-12-12T20:13:40.774Z,118.40
2018-12-12T20:15:45.412Z,116.77
2018-12-12T20:17:49.478Z,107.10
2018-12-12T20:19:52.662Z,139.67
2018-12-12T20:21:55.916Z,119.20
2018-12-12T20:23:59.022Z,113.37
2018-12-12T20:26:02.205Z,126.97
2018-12-12T20:28:05.411Z,100.10
2018-12-12T20:30:08.587Z,105.53
2018-12-12T20:32:11.715Z,122.60
2018-12-12T20:34:14.846Z,130.00
2018-12-12T20:36:18.120Z,124.17
2018-12-12T20:38:21.265Z,131.37
2018-12-12T20:40:25.067Z,143.90
2018-12-12T20:42:32.152Z,154.43
2018-12-12T20:44:35.346Z,169.77
2018-12-12T20:46:38.470Z,161.67
2018-12-12T20:48:41.713Z,152.30
2018-12-12T20:50:44.882Z,145.70
2018-12-12T20:52:48.054Z,148.20
2018-12-12T20:54:51.240Z,142.20
2018-12-12T20:56:54.618Z,157.57
2018-12-12T20:58:57.758Z,148.27
2018-12-12T21:01:01.029Z,168.50
2018-12-12T21:03:04.374Z,141.80
2018-12-12T21:05:07.629Z,156.07
2018-12-12T21:07:10.810Z,163.30
2018-12-12T21:09:14.087Z,146.43
2018-12-12T21:11:17.305Z,166.67
2018-12-12T21:13:20.558Z,168.70
2018-12-12T21:15:23.872Z,154.47
2018-12-12T21:17:29.209Z,157.60
2018-12-12T21:19:32.447Z,179.73
2018-12-12T21:21:35.676Z,166.37
2018-12-12T21:23:38.928Z,164.20
2018-12-12T21:25:43.517Z,149.37
2018-12-12T21:27:46.707Z,194.63
2018-12-12T21:29:49.995Z,183.70
2018-12-12T21:31:53.407Z,183.33
2018-12-12T21:33:56.579Z,171.23
2018-12-12T21:36:00.969Z,186.13
2018-12-12T21:38:05.486Z,156.37
2018-12-12T21:40:09.204Z,168.43
2018-12-12T21:42:12.435Z,178.63
2018-12-12T21:44:15.697Z,166.80
2018-12-12T21:46:18.922Z,159.57
2018-12-12T21:48:22.330Z,177.50
2018-12-12T21:50:25.969Z,153.10
2018-12-12T21:52:29.150Z,160.77
2018-12-12T21:54:32.250Z,162.83
2018-12-12T21:56:35.378Z,163.53
2018-12-12T21:58:38.590Z,151.60
2018-12-12T22:00:41.750Z,146.50
2018-12-12T22:02:44.855Z,153.07
2018-12-12T22:04:47.978Z,158.70
2018-12-12T22:06:51.102Z,177.57
2018-12-12T22:08:54.803Z,162.47
2018-12-12T22:10:57.969Z,155.93
2018-12-12T22:13:01.121Z,165.50
2018-12-12T22:15:04.998Z,144.17
2018-12-12T22:17:18.094Z,155.97
2018-12-12T22:19:21.418Z,149.67
2018-12-12T22:21:41.546Z,174.53
2018-12-12T22:23:44.650Z,149.73
2018-12-12T22:25:47.758Z,142.80
2018-12-12T22:27:50.867Z,146.83
2018-12-12T22:29:53.967Z,148.07
2018-12-12T22:31:57.081Z,143.87
2018-12-12T22:34:00.189Z,127.43
2018-12-12T22:36:03.294Z,141.97
2018-12-12T22:38:06.523Z,148.07
2018-12-12T22:40:29.007Z,140.47
2018-12-12T22:42:32.196Z,133.17
2018-12-12T22:44:35.293Z,136.13
2018-12-12T22:46:38.397Z,125.03
2018-12-12T22:48:41.498Z,136.97
2018-12-12T22:50:44.585Z,137.77
2018-12-12T22:52:47.723Z,145.37
2018-12-12T22:54:50.831Z,134.73
2018-12-12T22:56:53.939Z,140.73
2018-12-12T22:58:57.724Z,144.37
2018-12-12T23:01:07.314Z,126.27
2018-12-12T23:03:10.639Z,116.20
2018-12-12T23:05:13.826Z,128.20
2018-12-12T23:07:17.110Z,135.27
2018-12-12T23:09:20.235Z,120.33
2018-12-12T23:11:25.379Z,125.83
2018-12-12T23:13:28.847Z,118.17
2018-12-12T23:15:32.001Z,134.47
2018-12-12T23:17:35.237Z,138.83
2018-12-12T23:19:38.395Z,135.80
2018-12-12T23:21:41.562Z,140.50
2018-12-12T23:23:44.671Z,135.40
2018-12-12T23:25:47.745Z,139.37
2018-12-12T23:27:50.842Z,124.30
2018-12-12T23:29:54.026Z,118.50
2018-12-12T23:31:57.190Z,125.70
2018-12-12T23:34:00.405Z,125.63
2018-12-12T23:36:03.670Z,108.40
2018-12-12T23:38:06.837Z,116.60
2018-12-12T23:40:10.006Z,113.27
2018-12-12T23:42:13.174Z,111.80
2018-12-12T23:44:16.281Z,108.00
2018-12-12T23:46:19.362Z,107.77
2018-12-12T23:48:23.369Z,91.90
2018-12-12T23:50:26.461Z,95.77
2018-12-12T23:52:29.694Z,97.87
2018-12-12T23:54:32.841Z,89.83
2018-12-12T23:56:35.941Z,82.60
2018-12-12T23:58:39.038Z,88.00
